Annabella, Utah
Current Conditions -  °F | °C
As of 9:15 PM on Saturday 25 Oct 2014 (Local Time) from KDTA Reporting Station
Clear Clear  
Wind Chill: 18°   Ceiling: Unl
Heat Index: 18°   Visibility: 10mi
Dew Point:   Wind: 16mph
Humidity: 37%   Direction: 200°SSW
Pressure: 29.99"   Gusts: NA
Location:  38.71°N, 112.06°W
Report Text: KDTA 260315Z AUTO 20014KT 10SM CLR 18/03 A2999 RMK AO1 T01820032
Loading
Personal Weather Stations






























Interactive Weather Map New forecast layout! Learn more

10-Day Weather Forecast

Advertisements
Track Severe Weather on mobile